Time;durP1;ratioP1;P1;durP2;ratioP2;P2;SDS_P1;SDS_P2;PMS_P1;PMS_P2;Temp;Humidity;BMP_temperature;BMP_pressure;BME280_temperature;BME280_humidity;BME280_pressure;Samples;Min_cycle;Max_cycle;Signal;HPM_P1;HPM_P2
2023/02/16 00:01:20;;;;;;;99.32;61.20;;;9.70;99.90;;;10.00;77.62;102196.69;5113825;28;20043;-62
2023/02/16 00:03:50;;;;;;;101.20;62.13;;;9.70;99.90;;;9.98;78.22;102192.22;5095668;28;20052;-62
2023/02/16 00:06:19;;;;;;;96.75;60.97;;;9.70;99.90;;;9.95;78.57;102195.69;5113804;28;20044;-62
2023/02/16 00:08:50;;;;;;;89.85;59.20;;;9.70;99.90;;;9.27;78.41;102066.63;5113812;28;20048;-62
2023/02/16 00:14:14;;;;;;;95.15;59.85;;;9.70;99.90;;;9.90;78.82;102184.16;5113733;28;20065;-62
2023/02/16 00:16:44;;;;;;;99.47;61.55;;;9.70;99.90;;;10.08;78.51;102190.63;5113683;28;20051;-62
2023/02/16 00:19:20;;;;;;;96.60;62.28;;;9.70;99.90;;;10.00;78.44;102186.13;5113769;28;20044;-62
2023/02/16 00:21:50;;;;;;;95.03;61.20;;;9.70;99.90;;;10.04;78.66;102194.97;5113473;28;20065;-62
2023/02/16 00:24:19;;;;;;;93.78;60.38;;;9.70;99.90;;;10.07;78.32;102188.84;5113496;28;20400;-62
2023/02/16 00:26:48;;;;;;;93.43;60.53;;;9.80;99.90;;;10.10;78.06;102175.72;5113319;28;20118;-63
2023/02/16 00:29:24;;;;;;;99.82;63.25;;;9.70;99.90;;;10.10;78.18;102178.38;5095171;28;20052;-62
2023/02/16 00:31:56;;;;;;;92.85;60.58;;;9.80;99.90;;;10.01;78.18;102169.38;5095004;28;20086;-62
2023/02/16 00:34:32;;;;;;;90.75;59.53;;;9.80;99.90;;;10.09;78.13;102181.81;5113601;28;20063;-62
2023/02/16 00:37:03;;;;;;;91.65;60.33;;;9.80;99.90;;;10.00;78.02;102175.53;5094939;28;20055;-62
2023/02/16 00:39:32;;;;;;;88.60;59.92;;;9.80;99.90;;;9.77;78.15;102137.22;5095297;28;20046;-62
2023/02/16 00:42:03;;;;;;;94.47;62.35;;;9.70;99.90;;;9.74;78.16;102136.25;5113163;28;20063;-63
2023/02/16 00:44:36;;;;;;;90.93;60.47;;;9.70;99.90;;;9.96;78.64;102173.69;5113418;28;20431;-62
2023/02/16 00:47:19;;;;;;;98.38;61.83;;;9.60;99.90;;;9.95;78.93;102168.34;5113316;28;20089;-63
2023/02/16 00:49:50;;;;;;;91.27;60.17;;;9.60;99.90;;;9.83;78.45;102153.16;5113426;28;20039;-63
2023/02/16 00:52:34;;;;;;;93.25;60.83;;;9.60;99.90;;;9.70;78.55;102132.66;5113336;28;20300;-63
2023/02/16 00:55:06;;;;;;;92.15;58.85;;;9.70;99.90;;;9.97;78.07;102174.56;5095136;28;20485;-62
2023/02/16 00:57:38;;;;;;;93.97;60.67;;;9.60;99.90;;;10.03;77.97;102172.94;5113423;28;20044;-63
2023/02/16 01:00:15;;;;;;;96.78;62.90;;;9.70;99.90;;;10.06;77.93;102165.94;5094777;28;20050;-62
2023/02/16 01:02:47;;;;;;;90.57;59.60;;;9.70;99.90;;;10.09;77.79;102165.97;5094732;28;20110;-63
2023/02/16 01:05:16;;;;;;;91.47;59.35;;;9.80;99.90;;;10.06;78.03;102166.81;5094369;28;20142;-64
2023/02/16 01:13:20;;;;;;;84.95;58.15;;;9.70;99.90;;;9.99;78.33;102168.44;5117335;28;20040;-63
2023/02/16 01:15:49;;;;;;;83.85;57.72;;;9.70;99.90;;;10.01;78.71;102168.47;5098912;28;20042;-62
2023/02/16 01:18:20;;;;;;;89.40;58.20;;;9.70;99.90;;;10.06;78.51;102168.56;5117106;28;20070;-62
2023/02/16 01:20:51;;;;;;;88.43;57.72;;;9.70;99.90;;;10.07;78.30;102163.31;5098837;28;20044;-63
2023/02/16 01:23:20;;;;;;;88.47;57.25;;;9.80;99.90;;;10.15;78.51;102156.44;5116690;28;20139;-63
2023/02/16 01:25:48;;;;;;;88.30;58.38;;;9.80;99.90;;;10.16;78.16;102158.25;5098723;28;20062;-62
2023/02/16 01:28:22;;;;;;;92.68;59.17;;;9.80;99.90;;;10.15;78.24;102159.09;5098611;28;20047;-62
2023/02/16 01:30:52;;;;;;;90.35;57.40;;;9.90;99.90;;;10.08;78.40;102153.63;5098392;28;20409;-63
2023/02/16 01:33:22;;;;;;;86.25;57.58;;;9.80;99.90;;;10.11;78.50;102162.53;5098675;28;20047;-62
2023/02/16 01:35:54;;;;;;;91.03;59.75;;;9.80;99.90;;;10.11;78.78;102164.28;5098640;28;20101;-62
2023/02/16 01:38:26;;;;;;;87.93;56.75;;;9.80;99.90;;;9.96;78.35;102128.75;5098666;28;20134;-63
2023/02/16 01:41:05;;;;;;;85.53;57.03;;;9.80;99.90;;;9.97;78.23;102125.25;5098593;28;20378;-62
2023/02/16 01:43:44;;;;;;;88.28;56.17;;;9.90;99.90;;;10.22;77.99;102137.16;5094833;28;20078;-62
2023/02/16 01:46:20;;;;;;;87.90;57.63;;;9.90;99.90;;;10.27;77.97;102147.84;5096055;28;20032;-62
2023/02/16 01:48:50;;;;;;;84.47;56.58;;;9.90;99.90;;;10.28;77.95;102153.13;5096482;28;20044;-62
2023/02/16 01:51:26;;;;;;;86.80;57.77;;;9.90;99.90;;;10.28;77.64;102154.91;5096767;28;20058;-62
2023/02/16 01:54:06;;;;;;;86.80;55.95;;;10.00;99.90;;;10.20;77.53;102132.72;5095491;28;20044;-62
2023/02/16 01:56:42;;;;;;;86.47;58.08;;;9.90;99.90;;;10.30;77.51;102145.25;5096520;28;20109;-62
2023/02/16 01:59:21;;;;;;;94.30;61.10;;;10.00;99.90;;;10.29;77.26;102146.09;5095307;28;20470;-62
2023/02/16 02:01:55;;;;;;;97.45;63.42;;;10.00;99.90;;;10.29;77.28;102144.38;5112294;28;20052;-62
2023/02/16 02:07:22;;;;;;;97.15;68.50;;;10.00;99.90;;;10.25;76.94;102141.63;5095152;28;20048;-63
2023/02/16 02:10:01;;;;;;;98.18;67.28;;;9.90;99.90;;;10.02;77.44;102117.41;5095113;28;20085;-62
2023/02/16 02:12:38;;;;;;;104.93;70.28;;;9.90;99.90;;;10.23;77.26;102143.34;5094806;28;20040;-63
2023/02/16 02:15:08;;;;;;;98.18;66.05;;;9.90;99.90;;;10.25;77.19;102139.88;5095082;28;20488;-63
2023/02/16 02:17:37;;;;;;;96.70;65.85;;;9.90;99.90;;;10.14;77.46;102107.09;5094156;28;20048;-62
2023/02/16 02:20:16;;;;;;;93.75;65.65;;;9.90;99.90;;;10.33;77.18;102129.44;5094650;28;20075;-62
2023/02/16 02:23:42;;;;;;;94.03;65.28;;;10.00;99.90;;;10.39;77.04;102134.81;5094946;28;20055;-62
2023/02/16 02:26:50;;;;;;;98.13;63.28;;;10.00;99.90;;;10.28;76.83;102116.13;5095842;28;20037;-63
2023/02/16 02:29:41;;;;;;;85.53;59.22;;;10.10;99.90;;;10.29;77.10;102114.38;5096145;28;20101;-62
2023/02/16 02:32:23;;;;;;;86.68;59.35;;;10.00;99.90;;;10.30;76.85;102117.03;5094402;28;20052;-62
2023/02/16 02:35:08;;;;;;;85.13;57.55;;;10.00;99.90;;;10.23;77.17;102098.41;5094672;28;20070;-63
2023/02/16 02:37:48;;;;;;;85.65;56.42;;;10.00;99.90;;;10.22;77.29;102088.72;5094670;28;20059;-62
2023/02/16 02:40:29;;;;;;;84.70;57.22;;;9.90;99.90;;;10.25;77.42;102104.59;5094599;28;20105;-63
2023/02/16 02:43:11;;;;;;;87.35;58.13;;;9.90;99.90;;;10.28;77.03;102100.25;5094182;28;20059;-62
2023/02/16 02:45:47;;;;;;;83.88;55.17;;;9.90;99.90;;;10.32;77.02;102096.78;5094347;28;20044;-62
2023/02/16 02:48:16;;;;;;;83.68;56.28;;;10.00;99.90;;;10.32;76.91;102102.09;5094393;28;20056;-62
2023/02/16 02:53:42;;;;;;;84.00;56.53;;;10.00;99.90;;;9.45;76.55;101953.44;5094305;28;20390;-62
2023/02/16 03:01:59;;;;;;;83.85;54.40;;;10.00;99.90;;;10.33;76.67;102089.75;5095129;28;20044;-63
2023/02/16 03:04:31;;;;;;;82.40;55.08;;;10.00;99.90;;;10.40;76.40;102086.34;5093996;28;20048;-62
2023/02/16 03:07:02;;;;;;;77.65;53.80;;;10.00;99.90;;;10.42;76.43;102088.16;5095078;28;20370;-63
2023/02/16 03:09:31;;;;;;;82.18;56.35;;;10.10;99.90;;;10.40;76.53;102088.97;5095023;28;20040;-62
2023/02/16 03:14:52;;;;;;;80.88;54.53;;;10.10;99.90;;;10.31;76.24;102078.25;5095193;28;20056;-62
2023/02/16 03:31:31;;;;;;;82.75;53.70;;;10.10;99.90;;;9.44;76.64;101959.63;5094945;28;20040;-62
2023/02/16 03:34:00;;;;;;;80.78;54.65;;;10.10;99.90;;;9.95;76.28;102020.34;5094524;28;20036;-62
2023/02/16 03:36:32;;;;;;;77.95;53.25;;;10.10;99.90;;;10.48;76.25;102095.28;5094423;28;20067;-62
2023/02/16 03:39:01;;;;;;;75.15;52.20;;;10.10;99.90;;;10.41;76.14;102070.50;5094417;28;20375;-62
2023/02/16 03:41:33;;;;;;;76.82;52.30;;;10.20;99.90;;;10.54;76.15;102077.75;5093300;28;20036;-62
2023/02/16 03:44:02;;;;;;;76.55;54.15;;;10.20;99.90;;;10.50;76.29;102070.66;5110729;28;20077;-62
2023/02/16 03:46:32;;;;;;;81.25;55.08;;;10.20;99.90;;;10.54;76.17;102071.56;5114540;28;20048;-62
2023/02/16 03:49:00;;;;;;;81.50;53.42;;;10.20;99.90;;;10.50;76.17;102069.75;5114894;28;20040;-62
2023/02/16 03:51:29;;;;;;;76.55;52.25;;;10.20;99.90;;;10.35;76.46;102069.50;5114482;28;20126;-62
2023/02/16 03:53:57;;;;;;;80.10;52.75;;;10.20;99.90;;;10.29;76.07;102037.69;5114431;28;20040;-62
2023/02/16 03:56:26;;;;;;;76.90;52.45;;;10.20;99.90;;;10.48;75.93;102060.91;5114394;28;20044;-62
2023/02/16 03:58:54;;;;;;;74.57;51.67;;;10.20;99.90;;;10.36;76.31;102080.13;5114377;28;20454;-63
2023/02/16 04:01:23;;;;;;;77.85;51.65;;;10.20;99.90;;;10.54;76.10;102084.81;5096371;28;20507;-62
2023/02/16 04:03:52;;;;;;;77.20;50.58;;;10.20;99.90;;;10.36;76.23;102058.94;5114517;28;20051;-62
2023/02/16 04:06:21;;;;;;;75.28;50.42;;;10.20;99.90;;;10.38;76.08;102069.56;5114177;28;20096;-62
2023/02/16 04:08:50;;;;;;;74.45;50.13;;;10.20;99.90;;;10.51;76.37;102096.22;5114202;28;20036;-62
2023/02/16 04:14:05;;;;;;;75.70;51.95;;;10.20;99.90;;;10.39;76.58;102074.00;5114742;28;20152;-62
2023/02/16 04:16:33;;;;;;;75.70;52.03;;;10.20;99.90;;;10.46;76.75;102079.41;5114086;28;20071;-62
2023/02/16 04:19:03;;;;;;;75.30;50.38;;;10.10;99.90;;;10.48;76.72;102080.31;5114349;28;20043;-62
2023/02/16 04:21:31;;;;;;;77.07;50.57;;;10.20;99.90;;;10.33;77.06;102068.59;5114542;28;20131;-62
2023/02/16 04:24:01;;;;;;;72.55;50.13;;;10.20;99.90;;;10.31;76.99;102059.75;5112997;28;20051;-62
2023/02/16 04:26:29;;;;;;;75.47;51.00;;;10.10;99.90;;;10.32;77.29;102059.78;5113856;28;20488;-62
2023/02/16 04:28:58;;;;;;;76.40;50.85;;;10.20;99.90;;;10.46;77.20;102079.41;5113788;28;20467;-62
2023/02/16 04:31:26;;;;;;;75.40;51.20;;;10.20;99.90;;;10.50;76.93;102077.69;5113721;28;20405;-62
2023/02/16 04:33:55;;;;;;;75.22;50.92;;;10.20;99.90;;;10.52;76.68;102084.78;5095776;28;20105;-62
2023/02/16 04:36:25;;;;;;;77.20;50.88;;;10.20;99.90;;;10.37;76.95;102059.84;5095798;28;20056;-62
2023/02/16 04:38:53;;;;;;;74.80;50.20;;;10.20;99.90;;;10.45;76.54;102072.31;5113718;28;20539;-62
2023/02/16 04:41:21;;;;;;;71.50;50.15;;;10.20;99.90;;;10.55;76.63;102078.66;5113339;28;20277;-62
2023/02/16 04:43:50;;;;;;;72.57;49.92;;;10.20;99.90;;;10.57;76.51;102077.78;5113838;28;20079;-62
2023/02/16 04:46:18;;;;;;;78.57;50.90;;;10.30;99.90;;;10.45;76.11;102045.00;5113837;28;20047;-63
2023/02/16 04:48:47;;;;;;;73.53;49.63;;;10.30;99.90;;;10.64;76.25;102079.69;5113797;28;20062;-62
2023/02/16 04:51:16;;;;;;;72.05;49.15;;;10.30;99.90;;;9.30;76.05;101888.94;5113552;28;20071;-62
2023/02/16 04:53:45;;;;;;;77.70;52.88;;;10.30;99.90;;;10.63;76.10;102061.13;5113516;28;20132;-63
2023/02/16 04:56:14;;;;;;;76.50;51.27;;;10.40;99.90;;;10.73;76.14;102068.31;5114107;28;20051;-64
2023/02/16 04:58:43;;;;;;;73.57;50.03;;;10.40;99.90;;;10.50;75.84;102032.72;5113700;28;20382;-62
2023/02/16 05:01:20;;;;;;;75.10;49.60;;;10.40;99.90;;;10.62;76.34;102075.22;5078599;28;20035;-62
2023/02/16 05:03:48;;;;;;;71.60;49.80;;;10.40;99.90;;;10.60;76.33;102066.38;5095500;28;20074;-62
2023/02/16 05:06:18;;;;;;;71.20;49.97;;;10.30;99.90;;;10.35;76.64;102021.91;5113289;28;20044;-62
2023/02/16 05:08:48;;;;;;;73.50;51.25;;;10.30;99.90;;;10.48;76.56;102039.72;5113425;28;20047;-62
2023/02/16 05:16:47;;;;;;;77.30;50.80;;;10.30;99.90;;;10.61;76.71;102052.25;5099809;28;20501;-62
2023/02/16 05:19:16;;;;;;;72.97;49.78;;;10.30;99.90;;;10.61;76.73;102063.75;5113550;28;20044;-63
2023/02/16 05:21:47;;;;;;;80.13;50.80;;;10.30;99.90;;;10.62;77.00;102062.91;5113562;28;20446;-62
2023/02/16 05:24:17;;;;;;;74.95;51.50;;;10.30;99.90;;;10.39;76.85;102019.34;5113766;28;20035;-63
2023/02/16 05:26:45;;;;;;;72.95;50.20;;;10.30;99.90;;;10.65;76.80;102062.94;5113158;28;20036;-62
2023/02/16 05:29:13;;;;;;;74.95;49.45;;;10.30;99.90;;;10.63;77.12;102071.69;5113166;28;20070;-62
2023/02/16 05:31:42;;;;;;;74.57;49.75;;;10.30;99.90;;;10.68;77.07;102059.44;5113381;28;20298;-62
2023/02/16 05:34:11;;;;;;;80.38;52.88;;;10.30;99.90;;;10.54;77.25;102040.72;5113393;28;20085;-62
2023/02/16 05:36:39;;;;;;;79.40;53.08;;;10.40;99.90;;;10.68;77.60;102065.59;5113366;28;20115;-62
2023/02/16 05:39:07;;;;;;;78.78;53.33;;;10.30;99.90;;;10.56;77.95;102033.69;5113670;28;20129;-63
2023/02/16 05:41:37;;;;;;;80.07;52.92;;;10.30;99.90;;;10.49;78.11;102036.25;5095024;28;20511;-62
2023/02/16 05:44:08;;;;;;;76.47;52.38;;;10.30;99.90;;;10.32;78.33;102024.50;5113412;28;20048;-62
2023/02/16 05:46:38;;;;;;;78.97;52.67;;;10.30;99.90;;;10.45;78.88;102042.34;5112982;28;20063;-62
2023/02/16 05:49:08;;;;;;;79.65;52.28;;;10.20;99.90;;;10.33;78.97;102036.88;5113304;28;20440;-62
2023/02/16 05:51:39;;;;;;;77.45;52.83;;;10.20;99.90;;;10.48;79.40;102055.59;5113207;28;20039;-63
2023/02/16 05:54:09;;;;;;;77.78;52.05;;;10.20;99.90;;;10.40;79.26;102034.34;5116818;28;20065;-62
2023/02/16 05:56:39;;;;;;;74.25;52.67;;;10.20;99.90;;;10.54;79.15;102055.69;5116809;28;20071;-62
2023/02/16 05:59:07;;;;;;;73.93;51.30;;;10.20;99.90;;;10.57;79.27;102053.97;5117038;28;20089;-62
2023/02/16 06:01:39;;;;;;;72.63;50.38;;;10.30;99.90;;;10.51;79.33;102050.38;5116951;28;20130;-62
2023/02/16 06:04:08;;;;;;;77.28;52.28;;;10.30;99.90;;;10.40;79.01;102046.66;5116701;28;20075;-62
2023/02/16 06:06:38;;;;;;;75.38;51.33;;;10.20;99.90;;;10.54;79.03;102068.94;5116779;28;20046;-62
2023/02/16 06:09:08;;;;;;;75.77;52.03;;;10.20;99.90;;;10.48;79.11;102055.59;5116898;28;20481;-62
2023/02/16 06:11:38;;;;;;;78.43;52.08;;;10.30;99.90;;;10.57;79.03;102066.31;5116867;28;20050;-62
2023/02/16 06:14:09;;;;;;;82.25;52.70;;;10.30;99.90;;;10.53;79.14;102064.53;5116507;28;20051;-63
2023/02/16 06:16:40;;;;;;;75.53;51.53;;;10.20;99.90;;;10.53;79.21;102065.38;5116679;28;20048;-62
2023/02/16 06:19:09;;;;;;;79.38;51.35;;;10.20;99.90;;;10.52;78.92;102063.63;5116633;28;20047;-62
2023/02/16 06:21:38;;;;;;;79.70;54.33;;;10.20;99.90;;;10.53;79.12;102068.03;5116614;28;20051;-62
2023/02/16 06:24:09;;;;;;;74.95;51.00;;;10.20;99.90;;;10.56;79.28;102064.56;5116233;28;20039;-62
2023/02/16 06:26:39;;;;;;;76.93;52.72;;;10.20;99.90;;;10.55;79.13;102065.44;5116217;28;20057;-63
2023/02/16 06:29:10;;;;;;;78.07;52.25;;;10.20;99.90;;;10.30;79.04;102010.38;5116470;28;20040;-62
2023/02/16 06:31:39;;;;;;;76.55;52.70;;;10.20;99.90;;;10.36;79.14;102055.41;5116089;28;20043;-62
2023/02/16 06:34:07;;;;;;;79.53;53.05;;;10.30;99.90;;;10.51;78.95;102071.53;5116310;28;20156;-62
2023/02/16 06:36:36;;;;;;;78.32;51.67;;;10.30;99.90;;;10.57;78.98;102059.28;5116027;28;20047;-62
2023/02/16 06:39:10;;;;;;;84.03;55.15;;;10.30;99.90;;;10.68;79.26;102081.47;5116034;28;20091;-62
2023/02/16 06:41:40;;;;;;;78.22;52.47;;;10.30;99.90;;;10.63;79.59;102082.28;5115885;28;20119;-63
2023/02/16 06:44:12;;;;;;;78.47;51.77;;;10.30;99.90;;;10.61;79.95;102084.00;5115442;28;20112;-62
2023/02/16 06:46:41;;;;;;;79.47;53.70;;;10.30;99.90;;;10.49;80.21;102070.63;5097087;28;20297;-62
2023/02/16 06:49:12;;;;;;;82.05;53.97;;;10.20;99.90;;;10.29;80.40;102085.28;5116292;28;20085;-63
2023/02/16 06:51:41;;;;;;;78.57;53.20;;;10.20;99.90;;;10.50;80.47;102090.91;5116189;28;20047;-61
2023/02/16 06:54:10;;;;;;;77.75;52.88;;;10.20;99.90;;;10.32;80.50;102057.13;5115950;28;20046;-62
2023/02/16 06:56:40;;;;;;;76.53;51.95;;;10.20;99.90;;;10.26;80.72;102070.25;5115464;28;20048;-61
2023/02/16 06:59:10;;;;;;;78.18;53.00;;;10.10;99.90;;;10.36;81.17;102097.72;5115432;28;20044;-61
2023/02/16 07:01:39;;;;;;;80.70;52.80;;;10.10;99.90;;;10.35;81.18;102096.88;5115681;28;20044;-61
2023/02/16 07:04:07;;;;;;;81.55;53.20;;;10.00;99.90;;;10.24;81.37;102074.63;5114700;28;20039;-61
2023/02/16 07:06:36;;;;;;;80.18;53.53;;;10.10;99.90;;;10.22;81.28;102086.06;5115302;28;20039;-61
2023/02/16 07:09:05;;;;;;;76.57;52.53;;;10.10;99.90;;;10.35;81.45;102088.94;5115437;28;20046;-61
2023/02/16 07:11:34;;;;;;;79.43;54.50;;;10.00;99.90;;;10.36;81.51;102090.69;5115179;28;20094;-61
2023/02/16 07:14:04;;;;;;;78.68;53.00;;;10.00;99.90;;;10.33;81.77;102073.91;5115248;28;20043;-61
2023/02/16 07:16:32;;;;;;;84.40;54.97;;;10.10;99.90;;;10.44;81.50;102097.00;5115359;28;20032;-61
2023/02/16 07:19:01;;;;;;;81.68;54.53;;;10.10;99.90;;;10.45;81.63;102092.59;5096808;28;20289;-61
2023/02/16 07:21:29;;;;;;;79.85;54.15;;;10.10;99.90;;;10.44;81.57;102101.38;5097055;28;20511;-61
2023/02/16 07:23:58;;;;;;;83.18;55.55;;;10.10;99.90;;;10.39;81.71;102095.16;5115014;28;20053;-62
2023/02/16 07:26:26;;;;;;;84.43;55.47;;;10.10;99.90;;;10.37;81.50;102104.81;5114873;28;20047;-61
2023/02/16 07:28:54;;;;;;;83.50;53.90;;;10.10;99.90;;;10.35;81.62;102098.59;5115044;28;20047;-61
2023/02/16 07:31:25;;;;;;;82.40;55.65;;;10.00;99.90;;;10.34;81.53;102104.75;5114785;28;20050;-61
2023/02/16 07:33:53;;;;;;;;;;;10.00;99.90;;;9.78;81.47;102013.91;5097421;28;20116;-61
2023/02/16 07:36:22;;;;;;;79.22;53.33;;;10.00;99.90;;;10.35;81.78;102103.91;5114708;28;20284;-61
2023/02/16 07:38:50;;;;;;;82.85;56.10;;;10.10;99.90;;;10.25;81.62;102094.94;5114721;28;20104;-61
2023/02/16 07:41:19;;;;;;;84.53;54.65;;;10.00;99.90;;;10.16;81.83;102083.31;5114912;28;20046;-61
2023/02/16 07:43:47;;;;;;;83.97;56.25;;;10.00;99.90;;;10.31;81.79;102116.19;5114637;28;20100;-61
2023/02/16 07:46:15;;;;;;;80.32;54.38;;;10.00;99.90;;;10.31;82.04;102115.28;5114485;28;20081;-61
2023/02/16 07:48:47;;;;;;;82.60;55.58;;;10.00;99.90;;;10.12;82.50;102098.25;5114419;28;20493;-62
2023/02/16 07:51:22;;;;;;;82.20;55.40;;;10.00;99.90;;;10.24;82.10;102118.72;5114806;28;20489;-61
2023/02/16 07:53:51;;;;;;;81.50;55.10;;;9.90;99.90;;;10.25;82.16;102136.34;5114489;28;20048;-61
2023/02/16 07:56:23;;;;;;;;;;;9.90;99.90;;;10.11;82.62;102111.41;5114959;28;20040;-61
2023/02/16 07:58:52;;;;;;;88.30;56.17;;;9.90;99.90;;;10.31;82.96;102133.81;5114403;28;19919;-61
2023/02/16 08:01:21;;;;;;;83.28;56.58;;;10.00;99.90;;;10.15;83.29;102108.84;5114544;28;20093;-62
2023/02/16 08:03:51;;;;;;;83.20;54.90;;;10.00;99.90;;;10.28;83.55;102133.75;5114547;28;20074;-60
2023/02/16 08:06:20;;;;;;;79.43;57.05;;;10.00;99.90;;;10.01;83.89;102099.75;5114006;28;20039;-60
2023/02/16 08:08:51;;;;;;;82.68;57.42;;;9.90;99.90;;;10.23;84.17;102143.34;5114153;28;20071;-61
2023/02/16 08:11:24;;;;;;;80.72;55.33;;;9.90;99.90;;;10.07;84.74;102128.03;5114092;28;20040;-61
2023/02/16 08:13:53;;;;;;;84.55;57.42;;;9.90;99.90;;;10.04;84.95;102113.91;5114140;28;20052;-60
2023/02/16 08:16:25;;;;;;;84.90;56.40;;;9.90;99.90;;;10.24;85.52;102139.88;5113131;28;20588;-61
2023/02/16 08:18:57;;;;;;;81.18;56.00;;;9.90;99.90;;;10.13;85.58;102117.59;5114076;28;20401;-61
2023/02/16 08:21:29;;;;;;;81.90;56.67;;;9.90;99.90;;;8.29;85.77;101792.09;5114049;28;20039;-61
2023/02/16 08:24:00;;;;;;;85.80;55.72;;;9.90;99.90;;;9.67;86.29;102031.31;5114001;28;20485;-62
2023/02/16 08:26:32;;;;;;;80.32;55.20;;;9.90;99.90;;;9.94;86.90;102092.59;5113998;28;20043;-61
2023/02/16 08:29:01;;;;;;;83.53;57.67;;;9.90;99.90;;;10.00;87.35;102106.81;5113848;28;20100;-61
2023/02/16 08:31:31;;;;;;;85.65;54.72;;;9.90;99.90;;;10.09;87.56;102113.09;5113816;28;20052;-61
2023/02/16 08:34:04;;;;;;;78.47;55.15;;;9.90;99.90;;;10.29;88.15;102144.38;5113831;28;20071;-62
2023/02/16 08:36:37;;;;;;;83.07;56.40;;;10.00;99.90;;;10.36;88.22;102145.34;5114086;28;20230;-62
2023/02/16 08:39:11;;;;;;;80.22;55.42;;;10.00;99.90;;;9.78;88.34;102028.00;5114030;28;20047;-60
2023/02/16 08:41:39;;;;;;;80.05;55.05;;;10.10;99.90;;;10.43;88.74;102141.94;5113731;28;20044;-61
2023/02/16 08:44:09;;;;;;;79.95;54.38;;;10.10;99.90;;;10.28;88.81;102112.59;5113600;28;20474;-61
2023/02/16 08:46:41;;;;;;;81.22;57.40;;;10.10;99.90;;;10.30;89.10;102116.16;5113509;28;20434;-61
2023/02/16 08:49:11;;;;;;;81.20;55.80;;;10.20;99.90;;;9.88;89.18;102036.97;5113608;28;20548;-61
2023/02/16 08:51:43;;;;;;;81.88;55.08;;;10.20;99.90;;;10.44;89.40;102134.03;5113560;28;20039;-61
2023/02/16 08:54:16;;;;;;;79.45;54.95;;;10.20;99.90;;;10.22;89.50;102094.00;5095600;28;20052;-60
2023/02/16 08:56:46;;;;;;;81.00;55.92;;;10.20;99.90;;;10.42;89.60;102142.78;5113502;28;20050;-62
2023/02/16 08:59:17;;;;;;;79.43;55.75;;;10.20;99.90;;;10.37;89.92;102136.56;5113587;28;20451;-60
2023/02/16 09:01:45;;;;;;;81.65;56.60;;;10.10;99.90;;;10.24;89.55;102110.78;5113468;28;20382;-62
2023/02/16 09:04:16;;;;;;;82.72;57.92;;;10.20;99.90;;;10.44;89.73;102144.63;5113636;28;20140;-61
2023/02/16 09:06:47;;;;;;;87.85;59.97;;;10.20;99.90;;;10.34;89.62;102132.09;5113641;28;20043;-61
2023/02/16 09:09:16;;;;;;;87.07;58.78;;;10.10;99.90;;;10.33;89.93;102140.91;5113350;28;20086;-61
2023/02/16 09:11:45;;;;;;;82.07;57.22;;;10.10;99.90;;;10.40;89.92;102153.34;5113325;28;20073;-61
2023/02/16 09:14:15;;;;;;;82.22;58.10;;;10.10;99.90;;;10.18;90.10;102119.47;5113422;28;20451;-61
2023/02/16 09:16:45;;;;;;;82.97;58.10;;;10.10;99.90;;;10.30;90.66;102124.09;5113280;28;20049;-61
2023/02/16 09:19:18;;;;;;;84.03;58.47;;;10.00;99.90;;;10.32;90.73;102109.13;5113309;28;20397;-61
2023/02/16 09:21:49;;;;;;;92.07;60.28;;;10.10;99.90;;;10.36;90.42;102109.19;5113575;28;20396;-61
2023/02/16 09:24:18;;;;;;;87.65;59.60;;;10.20;99.90;;;10.56;90.64;102122.75;5113325;28;20501;-62
2023/02/16 09:26:46;;;;;;;86.97;58.58;;;10.20;99.90;;;10.63;91.08;102138.75;5113948;28;20078;-61
2023/02/16 09:29:15;;;;;;;87.65;59.70;;;10.30;99.90;;;10.55;90.98;102126.28;5117170;28;20097;-63
2023/02/16 09:31:44;;;;;;;84.95;59.25;;;10.30;99.90;;;10.65;91.38;102138.75;5117202;28;20039;-63
2023/02/16 09:34:21;;;;;;;85.72;58.60;;;10.40;99.90;;;10.81;91.86;102143.44;5117448;28;20130;-61
2023/02/16 09:36:50;;;;;;;84.38;59.47;;;10.40;99.90;;;10.97;92.26;102134.84;5099088;28;20108;-62
2023/02/16 09:39:20;;;;;;;85.68;61.22;;;10.60;99.90;;;10.88;91.80;102076.47;5117076;28;20481;-63
2023/02/16 09:42:11;;;;;;;93.53;60.47;;;10.80;99.90;;;11.23;91.96;102122.84;5117293;28;20123;-60
2023/02/16 09:44:49;;;;;;;88.28;60.45;;;10.90;99.90;;;11.19;91.21;102118.38;5117010;28;20051;-62
2023/02/16 09:47:24;;;;;;;88.32;59.28;;;10.90;99.90;;;11.13;91.39;102099.75;5117138;28;20048;-61
2023/02/16 09:49:57;;;;;;;87.25;60.08;;;10.90;99.90;;;11.26;91.67;102101.72;5116832;28;20036;-61
2023/02/16 09:52:35;;;;;;;94.00;61.13;;;11.00;99.90;;;11.21;91.31;102081.31;5116834;28;20050;-61
2023/02/16 09:55:08;;;;;;;87.82;60.78;;;11.10;99.90;;;11.44;91.67;102109.00;5117054;28;20048;-61
2023/02/16 09:57:54;;;;;;;90.60;62.08;;;11.20;99.90;;;11.45;91.39;102121.34;5116853;28;20050;-62
2023/02/16 10:00:40;;;;;;;97.30;60.78;;;11.20;99.90;;;11.43;91.09;102113.41;5117120;28;20039;-62
2023/02/16 10:03:36;;;;;;;96.07;63.13;;;11.20;99.90;;;11.29;90.72;102099.09;5116502;28;20084;-61
2023/02/16 10:06:27;;;;;;;90.72;58.45;;;11.20;99.90;;;11.34;91.00;102102.66;5098647;28;20059;-61
2023/02/16 10:08:59;;;;;;;89.18;61.13;;;11.10;99.90;;;11.32;91.12;102100.91;5098168;28;20048;-61
2023/02/16 10:11:40;;;;;;;86.72;61.17;;;11.10;99.90;;;11.25;90.94;102083.13;5116489;28;20047;-62
2023/02/16 10:14:18;;;;;;;89.10;58.75;;;11.20;99.90;;;11.34;90.95;102096.50;5116707;28;20371;-62
2023/02/16 10:17:00;;;;;;;88.78;60.05;;;11.10;99.90;;;11.37;91.08;102104.47;5116484;28;20071;-62
2023/02/16 10:19:35;;;;;;;86.82;60.33;;;11.10;99.90;;;11.41;91.13;102104.53;5116367;28;20048;-62
2023/02/16 10:22:10;;;;;;;85.13;59.30;;;11.10;99.90;;;11.43;91.08;102102.81;5116358;28;20071;-62
2023/02/16 10:24:48;;;;;;;83.93;58.13;;;11.20;99.90;;;11.20;91.29;102055.72;5116246;28;20481;-62
2023/02/16 10:27:17;;;;;;;86.07;57.20;;;11.20;99.90;;;11.21;91.44;102058.38;5098262;28;20404;-62
2023/02/16 10:29:45;;;;;;;94.85;59.90;;;11.20;99.90;;;11.44;92.04;102109.88;5098000;28;20055;-62
2023/02/16 10:32:28;;;;;;;87.10;58.45;;;11.20;99.90;;;11.34;92.54;102142.41;5098293;28;20158;-62
2023/02/16 10:35:12;;;;;;;91.90;61.13;;;11.10;99.90;;;11.37;92.80;102126.56;5097681;28;20067;-60
2023/02/16 10:37:58;;;;;;;90.20;60.78;;;11.20;99.90;;;11.40;92.92;102126.59;5115971;28;20489;-62
2023/02/16 10:40:35;;;;;;;86.45;59.70;;;11.10;99.90;;;11.37;92.73;102126.56;5115302;28;20047;-62
2023/02/16 10:43:13;;;;;;;96.43;62.38;;;11.10;99.90;;;11.38;93.16;102111.56;5116104;28;20405;-61
2023/02/16 10:45:50;;;;;;;98.75;61.47;;;11.20;99.90;;;11.34;93.59;102092.06;5115876;28;20493;-62
2023/02/16 10:48:21;;;;;;;89.97;62.90;;;11.30;99.90;;;11.43;93.28;102112.50;5115543;28;20138;-63
2023/02/16 10:50:58;;;;;;;89.90;61.42;;;11.30;99.90;;;11.08;93.81;102059.09;5115825;28;20096;-63
2023/02/16 10:53:40;;;;;;;90.35;60.97;;;11.20;99.90;;;11.52;93.94;102129.41;5116048;28;20109;-60
2023/02/16 10:56:48;;;;;;;93.45;63.58;;;11.30;99.90;;;11.13;93.77;102025.59;5115961;28;20044;-60
2023/02/16 10:59:20;;;;;;;89.55;62.28;;;11.40;99.90;;;11.68;93.82;102120.78;5115879;28;20048;-61
2023/02/16 11:01:52;;;;;;;94.75;61.75;;;11.40;99.90;;;11.63;93.58;102100.38;5115457;28;20035;-60
2023/02/16 11:04:36;;;;;;;88.10;57.80;;;11.50;99.90;;;11.72;92.75;102096.09;5115578;28;20040;-62
2023/02/16 11:07:10;;;;;;;80.55;56.65;;;11.50;99.90;;;11.77;92.91;102083.78;5115373;28;20059;-61
2023/02/16 11:09:43;;;;;;;85.05;56.40;;;11.60;99.90;;;11.80;92.44;102093.53;5097236;28;20469;-61